Terminal Aerodrome Forecast
Issued by NWS

Home | Current Version | Previous Version | Text Only | Print | Product List | Glossary On
Versions: 1 2 3 4 5 6 7 8 9 10 11
000
FTUS45 KRIW 100524
TAFCPR
TAF
KCPR 100524Z 1006/1106 23014G22KT P6SM SCT250
     FM101500 23020G30KT P6SM SCT250
     FM110300 23015KT P6SM SCT250=

USA.gov is the U.S. government's official web portal to all federal, state and local government web resources and services.